Time;durP1;ratioP1;P1;durP2;ratioP2;P2;SDS_P1;SDS_P2;PMS_P1;PMS_P2;Temp;Humidity;BMP_temperature;BMP_pressure;BME280_temperature;BME280_humidity;BME280_pressure;Samples;Min_cycle;Max_cycle;Signal;HPM_P1;HPM_P2
2022/11/03 00:07:10;;;;;;;15.70;9.60;;;;;;;4.74;98.24;100133.44;434857;1287;141786;-63
2022/11/03 00:17:15;;;;;;;12.00;9.40;;;;;;;4.63;98.27;100140.91;434953;1287;140804;-63
2022/11/03 00:27:21;;;;;;;16.60;8.90;;;;;;;4.55;98.44;100132.98;434322;1288;143636;-64
2022/11/03 00:37:27;;;;;;;19.10;10.70;;;;;;;4.45;98.72;100134.84;434994;1286;141420;-63
2022/11/03 00:47:33;;;;;;;13.00;9.20;;;;;;;4.34;98.67;100141.41;434197;1287;142617;-64
2022/11/03 00:57:39;;;;;;;17.50;11.90;;;;;;;4.17;98.84;100142.40;427301;1286;141900;-63
2022/11/03 01:07:45;;;;;;;21.50;13.80;;;;;;;4.03;99.19;100143.86;427411;1286;141958;-63
2022/11/03 01:17:51;;;;;;;16.80;12.70;;;;;;;3.83;99.15;100140.59;434367;1280;162684;-63
2022/11/03 01:27:56;;;;;;;15.20;13.20;;;;;;;3.71;99.52;100135.88;435103;1280;141713;-63
2022/11/03 02:00:34;;;;;;;19.40;13.10;;;;;;;3.32;99.58;100141.73;434380;1287;145674;-64
2022/11/03 02:10:41;;;;;;;20.20;14.80;;;;;;;3.13;99.46;100150.33;427113;1287;141962;-62
2022/11/03 02:20:49;;;;;;;20.10;15.30;;;;;;;3.07;99.95;100145.80;434333;1287;142610;-62
2022/11/03 02:31:03;;;;;;;20.70;16.30;;;;;;;3.05;99.93;100143.06;435053;1289;142573;-63
2022/11/03 02:41:10;;;;;;;24.40;17.10;;;;;;;3.04;100.00;100136.70;435034;1279;142084;-63
2022/11/03 02:51:16;;;;;;;24.70;16.10;;;;;;;3.04;100.00;100137.56;434241;1287;142318;-64
2022/11/03 03:01:28;;;;;;;24.10;15.50;;;;;;;2.89;100.00;100136.71;434984;1289;196326;-63
2022/11/03 03:11:38;;;;;;;20.00;15.10;;;;;;;2.75;100.00;100136.33;434350;1287;143529;-63
2022/11/03 03:21:49;;;;;;;21.40;13.80;;;;;;;2.57;100.00;100144.86;420060;1286;145169;-62
2022/11/03 03:31:58;;;;;;;40.00;16.70;;;;;;;2.25;99.95;100144.67;432656;1285;142664;-63
2022/11/03 03:42:06;;;;;;;31.20;15.90;;;;;;;2.03;99.90;100143.21;434516;1287;199193;-63
2022/11/03 03:52:12;;;;;;;21.10;13.30;;;;;;;1.90;99.91;100145.02;435237;1287;142940;-63
2022/11/03 04:02:18;;;;;;;35.40;15.70;;;;;;;1.70;99.98;100142.96;435221;1280;143000;-64
2022/11/03 04:22:47;;;;;;;24.80;15.90;;;;;;;1.49;99.95;100147.64;435265;1287;143285;-64
2022/11/03 04:32:53;;;;;;;26.90;14.40;;;;;;;1.50;100.00;100145.74;434510;1284;142648;-63
2022/11/03 04:42:59;;;;;;;18.80;16.80;;;;;;;1.52;100.00;100147.09;434987;1280;142958;-63
2022/11/03 04:53:13;;;;;;;24.60;16.90;;;;;;;1.44;100.00;100143.44;432622;1287;144318;-64
2022/11/03 05:03:22;;;;;;;64.00;20.10;;;;;;;1.25;100.00;100142.55;434179;1281;143065;-63
2022/11/03 05:13:29;;;;;;;44.90;18.30;;;;;;;1.23;100.00;100138.27;434876;1287;152196;-71
2022/11/03 05:23:39;;;;;;;41.70;17.50;;;;;;;1.16;100.00;100130.98;434068;1287;145204;-72
2022/11/03 05:33:46;;;;;;;34.70;15.90;;;;;;;0.99;100.00;100136.77;434917;1280;143059;-72
2022/11/03 05:43:57;;;;;;;66.70;20.60;;;;;;;0.91;100.00;100144.81;435225;1288;142339;-72
2022/11/03 05:54:06;;;;;;;53.40;17.60;;;;;;;0.95;100.00;100147.85;434599;1284;142998;-71
2022/11/03 06:04:18;;;;;;;83.20;21.70;;;;;;;1.15;100.00;100152.38;430998;1280;144160;-72
2022/11/03 06:14:26;;;;;;;40.70;17.20;;;;;;;1.42;100.00;100151.08;435156;1286;142253;-72
2022/11/03 06:24:33;;;;;;;45.00;19.00;;;;;;;1.74;100.00;100148.09;434821;1287;208745;-72
2022/11/03 06:34:45;;;;;;;26.40;15.00;;;;;;;2.35;100.00;100149.65;435139;1288;143169;-72
2022/11/03 06:44:52;;;;;;;35.00;25.80;;;;;;;3.46;100.00;100156.21;434323;1288;161736;-72
2022/11/03 06:55:16;;;;;;;23.80;16.10;;;;;;;6.12;100.00;100148.11;434910;1287;293682;-72
2022/11/03 07:05:25;;;;;;;19.00;12.10;;;;;;;10.03;98.13;100153.39;435247;1286;143807;-71
2022/11/03 07:15:36;;;;;;;14.90;11.70;;;;;;;14.08;92.06;100147.13;434819;1278;148139;-71
2022/11/03 07:25:41;;;;;;;17.80;13.50;;;;;;;17.24;85.47;100147.45;430216;1288;142730;-70
2022/11/03 07:35:49;;;;;;;21.50;15.20;;;;;;;20.03;79.33;100138.81;433445;1288;142464;-68
2022/11/03 07:46:19;;;;;;;20.80;13.30;;;;;;;22.01;72.87;100130.80;435252;1286;144380;-68
2022/11/03 07:56:27;;;;;;;13.60;11.80;;;;;;;23.53;67.82;100128.59;435313;1286;142204;-69
2022/11/03 08:06:34;;;;;;;12.00;10.90;;;;;;;25.35;63.61;100122.81;434897;1291;199387;-69
2022/11/03 08:16:38;;;;;;;;;;;;;;;26.11;58.66;100115.50;435331;1280;142157;-69
2022/11/03 08:26:43;;;;;;;12.50;11.20;;;;;;;26.85;55.82;100109.45;434637;1293;130159;-68
2022/11/03 08:36:49;;;;;;;11.50;10.20;;;;;;;27.76;52.43;100101.02;435208;1284;141358;-70
2022/11/03 08:46:54;;;;;;;11.80;10.70;;;;;;;28.68;49.16;100089.05;435205;1287;142576;-68
2022/11/03 08:57:00;;;;;;;10.60;9.70;;;;;;;28.85;46.82;100077.66;434474;1287;142930;-69
2022/11/03 09:07:06;;;;;;;10.80;9.90;;;;;;;28.62;45.26;100075.67;435304;1286;144024;-70
2022/11/03 09:17:11;;;;;;;8.70;5.10;;;;;;;27.63;43.59;100073.04;435285;1287;143114;-69
2022/11/03 09:27:17;;;;;;;7.30;4.80;;;;;;;24.59;43.94;100062.92;432629;1287;143522;-69
2022/11/03 09:37:23;;;;;;;10.10;5.00;;;;;;;20.20;46.55;100059.83;426382;1288;142237;-71
2022/11/03 09:47:33;;;;;;;7.60;4.00;;;;;;;17.40;48.92;100042.19;434471;1286;144485;-69
2022/11/03 09:57:38;;;;;;;10.00;4.20;;;;;;;15.85;51.24;100032.16;435300;1291;142254;-70
2022/11/03 10:07:45;;;;;;;8.00;4.10;;;;;;;14.71;52.68;100026.17;435287;1294;141491;-70
2022/11/03 10:17:51;;;;;;;7.70;2.60;;;;;;;13.76;54.04;100011.83;434590;1291;167175;-70
2022/11/03 10:28:13;;;;;;;8.40;2.30;;;;;;;13.08;55.30;100002.93;435326;1288;142775;-70
2022/11/03 10:38:27;;;;;;;5.70;2.60;;;;;;;12.79;55.91;99997.31;435285;1294;144624;-71
2022/11/03 10:48:33;;;;;;;5.20;3.10;;;;;;;12.53;56.45;99986.23;434959;1287;210612;-70
2022/11/03 10:58:39;;;;;;;7.10;2.10;;;;;;;12.33;56.97;99969.96;435283;1287;142475;-70
2022/11/03 11:08:44;;;;;;;5.00;2.40;;;;;;;12.27;56.69;99952.24;434553;1293;141833;-70
2022/11/03 11:19:12;;;;;;;5.10;2.40;;;;;;;12.35;56.84;99937.02;435150;1287;141753;-70
2022/11/03 11:29:45;;;;;;;;;;;;;;;12.42;56.26;99924.94;435343;1283;140356;-70
2022/11/03 11:39:51;;;;;;;3.40;1.90;;;;;;;12.74;54.83;99916.67;435308;1283;197982;-69
2022/11/03 11:50:13;;;;;;;3.90;1.30;;;;;;;13.01;54.23;99908.14;435199;1286;141249;-71
2022/11/03 12:00:25;;;;;;;3.10;1.30;;;;;;;13.11;53.72;99893.10;434620;1288;141630;-70
2022/11/03 12:10:31;;;;;;;4.20;1.70;;;;;;;13.13;53.85;99880.42;435305;1283;141910;-71
2022/11/03 12:20:47;;;;;;;4.40;2.20;;;;;;;13.13;54.00;99871.30;434428;1294;141536;-71
2022/11/03 12:30:52;;;;;;;2.90;1.80;;;;;;;13.18;53.83;99874.29;426102;1291;141608;-71
2022/11/03 12:41:19;;;;;;;3.50;1.60;;;;;;;13.01;52.86;99859.12;427443;1284;141050;-70
2022/11/03 12:51:25;;;;;;;4.50;1.60;;;;;;;12.58;52.75;99854.88;434555;1285;141772;-70
2022/11/03 13:01:31;;;;;;;6.00;2.50;;;;;;;12.27;53.60;99843.61;435250;1277;143030;-70
2022/11/03 13:22:00;;;;;;;6.80;2.70;;;;;;;11.88;55.37;99830.69;435255;1291;142240;-70
2022/11/03 13:32:07;;;;;;;5.70;2.40;;;;;;;11.69;55.62;99817.91;435289;1291;141634;-71
2022/11/03 13:42:13;;;;;;;5.40;2.40;;;;;;;11.70;56.01;99807.29;434532;1284;141867;-71
2022/11/03 13:52:19;;;;;;;5.90;2.70;;;;;;;11.72;55.94;99774.20;430180;1286;143909;-70
2022/11/03 14:02:25;;;;;;;4.00;2.60;;;;;;;11.54;56.19;99758.91;435280;1287;141477;-70
2022/11/03 14:12:50;;;;;;;8.60;3.80;;;;;;;11.23;56.39;99753.85;434817;1288;210652;-70
2022/11/03 14:22:56;;;;;;;4.40;3.10;;;;;;;10.88;56.83;99741.87;435229;1289;141879;-70
2022/11/03 14:33:02;;;;;;;5.50;2.70;;;;;;;10.53;57.47;99738.27;422109;1284;142557;-70
2022/11/03 14:43:07;;;;;;;5.30;2.70;;;;;;;10.17;58.02;99723.02;418045;1278;140673;-70
2022/11/03 14:53:13;;;;;;;5.50;4.10;;;;;;;9.81;58.55;99716.77;418746;1284;140677;-71
2022/11/03 15:03:19;;;;;;;8.80;4.30;;;;;;;9.42;59.22;99706.97;434338;1285;142173;-71
2022/11/03 15:13:25;;;;;;;9.20;5.30;;;;;;;9.14;59.92;99691.56;435284;1287;141953;-71
2022/11/03 15:23:31;;;;;;;9.40;5.40;;;;;;;8.92;61.08;99675.70;434548;1284;151051;-70
2022/11/03 15:33:56;;;;;;;10.10;6.10;;;;;;;8.72;61.86;99650.23;435308;1287;142128;-71
2022/11/03 15:44:02;;;;;;;9.10;4.80;;;;;;;8.48;62.70;99631.31;435250;1288;143792;-71
2022/11/03 15:54:08;;;;;;;9.30;6.20;;;;;;;8.31;63.63;99624.52;434349;1278;144718;-71
2022/11/03 16:04:15;;;;;;;7.30;6.30;;;;;;;8.15;64.27;99616.49;435078;1286;142260;-72
2022/11/03 16:14:20;;;;;;;15.50;7.70;;;;;;;8.00;65.22;99608.52;434997;1278;143832;-71
2022/11/03 16:24:26;;;;;;;14.70;8.50;;;;;;;7.78;65.69;99591.56;434351;1288;212566;-71
2022/11/03 16:34:39;;;;;;;12.90;7.20;;;;;;;7.60;66.00;99587.63;434996;1280;141798;-71
2022/11/03 16:44:45;;;;;;;14.20;7.50;;;;;;;7.50;66.57;99584.45;434394;1280;143409;-72
2022/11/03 16:54:51;;;;;;;13.30;8.10;;;;;;;7.42;66.85;99575.77;435283;1288;143474;-71
2022/11/03 17:04:57;;;;;;;12.40;9.40;;;;;;;7.29;67.57;99575.08;435235;1278;141319;-71
2022/11/03 17:15:02;;;;;;;18.20;10.30;;;;;;;7.07;67.88;99570.25;434581;1286;144757;-72
2022/11/03 17:25:11;;;;;;;15.30;10.10;;;;;;;6.86;68.41;99556.50;433873;1288;144796;-72
2022/11/03 17:35:20;;;;;;;18.30;11.50;;;;;;;6.71;68.89;99546.41;435210;1283;142164;-72
2022/11/03 17:45:27;;;;;;;15.20;10.50;;;;;;;6.52;69.15;99546.47;430194;1278;144687;-72
2022/11/03 17:55:34;;;;;;;19.40;13.10;;;;;;;6.38;69.69;99528.68;432801;1281;144190;-72
2022/11/03 18:05:40;;;;;;;21.90;12.20;;;;;;;6.28;69.96;99518.88;435142;1284;143957;-70
2022/11/03 18:15:48;;;;;;;20.50;14.90;;;;;;;6.27;70.32;99507.12;435945;1291;147177;-71
2022/11/03 18:25:54;;;;;;;23.00;14.10;;;;;;;6.29;70.43;99496.20;435993;1284;142608;-72
2022/11/03 18:36:02;;;;;;;18.80;13.20;;;;;;;6.23;70.19;99473.77;435212;1280;142680;-72
2022/11/03 18:46:09;;;;;;;20.60;12.10;;;;;;;6.12;70.61;99460.17;435872;1283;141821;-72
2022/11/03 18:56:16;;;;;;;22.80;13.40;;;;;;;6.06;70.87;99453.04;435862;1281;142572;-72
2022/11/03 19:06:22;;;;;;;21.60;12.20;;;;;;;5.99;71.17;99432.80;434694;1284;142619;-71
2022/11/03 19:16:29;;;;;;;17.70;11.80;;;;;;;6.03;71.54;99417.83;435985;1283;141979;-74
2022/11/03 19:26:42;;;;;;;15.50;10.50;;;;;;;6.30;71.51;99398.31;435221;1284;146397;-72
2022/11/03 19:36:49;;;;;;;16.60;12.60;;;;;;;6.58;71.11;99381.64;435955;1277;142625;-72
2022/11/03 19:46:54;;;;;;;18.70;10.70;;;;;;;6.77;70.81;99355.08;435814;1290;141755;-71
2022/11/03 19:57:00;;;;;;;14.30;10.90;;;;;;;6.76;70.81;99343.34;435104;1284;143553;-73
2022/11/03 20:07:07;;;;;;;18.90;11.40;;;;;;;6.71;70.69;99343.38;435935;1283;141937;-72
2022/11/03 20:17:16;;;;;;;22.10;11.70;;;;;;;6.85;70.57;99327.54;431448;1276;141962;-73
2022/11/03 20:27:21;;;;;;;16.90;12.10;;;;;;;6.92;70.32;99305.23;435343;1284;142606;-72
2022/11/03 20:37:27;;;;;;;19.00;12.50;;;;;;;6.95;70.37;99290.48;428256;1283;142694;-64
2022/11/03 20:47:34;;;;;;;21.50;15.00;;;;;;;6.96;70.65;99281.39;435085;1284;141491;-72
2022/11/03 20:57:40;;;;;;;18.80;11.40;;;;;;;6.88;70.81;99269.43;426478;1281;141878;-71
2022/11/03 21:07:46;;;;;;;14.90;11.00;;;;;;;6.90;71.19;99262.04;435746;1280;143402;-71
2022/11/03 21:28:14;;;;;;;14.50;9.20;;;;;;;7.01;71.12;99247.16;435823;1287;142545;-71
2022/11/03 21:38:20;;;;;;;12.70;8.00;;;;;;;7.00;71.52;99227.38;435763;1286;142209;-71
2022/11/03 21:58:49;;;;;;;11.60;8.10;;;;;;;6.92;71.51;99198.91;435825;1281;142585;-72
2022/11/03 22:08:55;;;;;;;15.50;8.60;;;;;;;6.81;71.87;99188.02;434860;1270;143365;-71
2022/11/03 22:50:10;;;;;;;12.80;8.50;;;;;;;6.73;73.70;99116.80;435541;1284;142283;-71
2022/11/03 23:00:19;;;;;;;13.40;9.10;;;;;;;6.70;74.01;99108.26;435123;1283;141876;-71
2022/11/03 23:10:33;;;;;;;17.30;9.10;;;;;;;6.72;74.02;99096.17;435799;1285;141892;-72
2022/11/03 23:31:03;;;;;;;11.90;9.80;;;;;;;6.72;74.31;99069.02;435890;1282;141447;-70
2022/11/03 23:41:10;;;;;;;14.90;10.40;;;;;;;6.67;74.54;99048.60;435934;1285;142746;-71
2022/11/03 23:51:17;;;;;;;13.50;9.30;;;;;;;6.65;74.62;99040.02;435125;1282;142428;-71
